sensor_id;sensor_type;location;lat;lon;timestamp;P1;durP1;ratioP1;P2;durP2;ratioP2
49842;SDS011;55559;48.898;9.184;2024-03-02T00:01:27;26.75;;;16.20;;
49842;SDS011;55559;48.898;9.184;2024-03-02T00:03:54;24.33;;;14.80;;
49842;SDS011;55559;48.898;9.184;2024-03-02T00:06:21;23.85;;;16.15;;
49842;SDS011;55559;48.898;9.184;2024-03-02T00:08:48;29.92;;;17.45;;
49842;SDS011;55559;48.898;9.184;2024-03-02T00:11:15;27.55;;;16.20;;
49842;SDS011;55559;48.898;9.184;2024-03-02T00:13:44;24.33;;;16.05;;
49842;SDS011;55559;48.898;9.184;2024-03-02T00:16:13;24.70;;;14.73;;
49842;SDS011;55559;48.898;9.184;2024-03-02T00:18:41;26.73;;;15.77;;
49842;SDS011;55559;48.898;9.184;2024-03-02T00:21:09;23.38;;;15.27;;
49842;SDS011;55559;48.898;9.184;2024-03-02T00:23:41;25.25;;;14.05;;
49842;SDS011;55559;48.898;9.184;2024-03-02T00:26:08;21.08;;;14.55;;
49842;SDS011;55559;48.898;9.184;2024-03-02T00:28:38;22.73;;;13.65;;
49842;SDS011;55559;48.898;9.184;2024-03-02T00:31:09;23.80;;;14.63;;
49842;SDS011;55559;48.898;9.184;2024-03-02T00:33:38;20.67;;;14.45;;
49842;SDS011;55559;48.898;9.184;2024-03-02T00:36:07;23.65;;;15.40;;
49842;SDS011;55559;48.898;9.184;2024-03-02T00:38:35;26.80;;;15.35;;
49842;SDS011;55559;48.898;9.184;2024-03-02T00:41:07;27.00;;;15.48;;
49842;SDS011;55559;48.898;9.184;2024-03-02T00:43:44;26.00;;;15.32;;
49842;SDS011;55559;48.898;9.184;2024-03-02T00:46:12;28.27;;;15.80;;
49842;SDS011;55559;48.898;9.184;2024-03-02T00:48:44;24.60;;;15.57;;
49842;SDS011;55559;48.898;9.184;2024-03-02T00:51:14;24.13;;;15.73;;
49842;SDS011;55559;48.898;9.184;2024-03-02T00:53:41;27.33;;;15.15;;
49842;SDS011;55559;48.898;9.184;2024-03-02T00:56:09;26.48;;;16.35;;
49842;SDS011;55559;48.898;9.184;2024-03-02T00:58:37;25.00;;;15.75;;
49842;SDS011;55559;48.898;9.184;2024-03-02T01:01:04;26.20;;;15.25;;
49842;SDS011;55559;48.898;9.184;2024-03-02T01:03:32;27.05;;;15.75;;
49842;SDS011;55559;48.898;9.184;2024-03-02T01:06:00;27.75;;;16.88;;
49842;SDS011;55559;48.898;9.184;2024-03-02T01:08:27;30.67;;;16.20;;
49842;SDS011;55559;48.898;9.184;2024-03-02T01:10:55;29.85;;;16.67;;
49842;SDS011;55559;48.898;9.184;2024-03-02T01:13:22;23.63;;;16.95;;
49842;SDS011;55559;48.898;9.184;2024-03-02T01:15:50;27.40;;;16.00;;
49842;SDS011;55559;48.898;9.184;2024-03-02T01:18:17;30.23;;;18.10;;
49842;SDS011;55559;48.898;9.184;2024-03-02T01:20:44;26.70;;;16.33;;
49842;SDS011;55559;48.898;9.184;2024-03-02T01:23:12;31.55;;;17.55;;
49842;SDS011;55559;48.898;9.184;2024-03-02T01:25:40;31.55;;;17.95;;
49842;SDS011;55559;48.898;9.184;2024-03-02T01:28:07;29.25;;;17.05;;
49842;SDS011;55559;48.898;9.184;2024-03-02T01:30:34;25.85;;;16.10;;
49842;SDS011;55559;48.898;9.184;2024-03-02T01:33:02;32.47;;;18.65;;
49842;SDS011;55559;48.898;9.184;2024-03-02T01:35:30;40.00;;;19.88;;
49842;SDS011;55559;48.898;9.184;2024-03-02T01:37:57;45.20;;;21.00;;
49842;SDS011;55559;48.898;9.184;2024-03-02T01:40:26;36.72;;;19.65;;
49842;SDS011;55559;48.898;9.184;2024-03-02T01:42:53;33.33;;;18.52;;
49842;SDS011;55559;48.898;9.184;2024-03-02T01:45:21;38.22;;;20.65;;
49842;SDS011;55559;48.898;9.184;2024-03-02T01:47:48;33.15;;;19.58;;
49842;SDS011;55559;48.898;9.184;2024-03-02T01:50:16;26.52;;;16.90;;
49842;SDS011;55559;48.898;9.184;2024-03-02T01:52:43;25.98;;;16.40;;
49842;SDS011;55559;48.898;9.184;2024-03-02T01:55:10;28.60;;;18.90;;
49842;SDS011;55559;48.898;9.184;2024-03-02T01:57:39;28.15;;;19.60;;
49842;SDS011;55559;48.898;9.184;2024-03-02T02:00:06;34.47;;;18.27;;
49842;SDS011;55559;48.898;9.184;2024-03-02T02:02:38;26.92;;;18.50;;
49842;SDS011;55559;48.898;9.184;2024-03-02T02:05:07;26.92;;;17.40;;
49842;SDS011;55559;48.898;9.184;2024-03-02T02:07:34;24.70;;;17.67;;
49842;SDS011;55559;48.898;9.184;2024-03-02T02:10:02;31.67;;;17.02;;
49842;SDS011;55559;48.898;9.184;2024-03-02T02:12:29;24.70;;;15.90;;
49842;SDS011;55559;48.898;9.184;2024-03-02T02:14:57;26.38;;;18.17;;
49842;SDS011;55559;48.898;9.184;2024-03-02T02:17:40;29.88;;;17.65;;
49842;SDS011;55559;48.898;9.184;2024-03-02T02:20:07;25.95;;;16.92;;
49842;SDS011;55559;48.898;9.184;2024-03-02T02:22:36;25.42;;;16.38;;
49842;SDS011;55559;48.898;9.184;2024-03-02T02:25:03;29.80;;;17.92;;
49842;SDS011;55559;48.898;9.184;2024-03-02T02:27:30;28.83;;;17.30;;
49842;SDS011;55559;48.898;9.184;2024-03-02T02:29:57;32.85;;;17.52;;
49842;SDS011;55559;48.898;9.184;2024-03-02T02:32:26;29.02;;;16.58;;
49842;SDS011;55559;48.898;9.184;2024-03-02T02:34:53;27.92;;;17.85;;
49842;SDS011;55559;48.898;9.184;2024-03-02T02:37:20;27.77;;;17.95;;
49842;SDS011;55559;48.898;9.184;2024-03-02T02:39:49;35.10;;;16.95;;
49842;SDS011;55559;48.898;9.184;2024-03-02T02:42:16;26.95;;;17.85;;
49842;SDS011;55559;48.898;9.184;2024-03-02T02:44:43;27.25;;;17.30;;
49842;SDS011;55559;48.898;9.184;2024-03-02T02:47:10;29.83;;;17.80;;
49842;SDS011;55559;48.898;9.184;2024-03-02T02:49:37;33.55;;;17.45;;
49842;SDS011;55559;48.898;9.184;2024-03-02T02:52:04;26.30;;;18.20;;
49842;SDS011;55559;48.898;9.184;2024-03-02T02:54:31;28.00;;;17.90;;
49842;SDS011;55559;48.898;9.184;2024-03-02T02:56:59;31.52;;;18.98;;
49842;SDS011;55559;48.898;9.184;2024-03-02T02:59:26;31.20;;;17.20;;
49842;SDS011;55559;48.898;9.184;2024-03-02T03:02:00;30.77;;;17.10;;
49842;SDS011;55559;48.898;9.184;2024-03-02T03:04:27;29.33;;;17.27;;
49842;SDS011;55559;48.898;9.184;2024-03-02T03:06:54;26.48;;;17.58;;
49842;SDS011;55559;48.898;9.184;2024-03-02T03:09:21;28.77;;;17.88;;
49842;SDS011;55559;48.898;9.184;2024-03-02T03:11:48;33.30;;;17.45;;
49842;SDS011;55559;48.898;9.184;2024-03-02T03:14:17;28.55;;;18.67;;
49842;SDS011;55559;48.898;9.184;2024-03-02T03:16:45;26.90;;;17.85;;
49842;SDS011;55559;48.898;9.184;2024-03-02T03:19:14;35.30;;;19.75;;
49842;SDS011;55559;48.898;9.184;2024-03-02T03:21:43;35.88;;;19.42;;
49842;SDS011;55559;48.898;9.184;2024-03-02T03:24:10;36.58;;;20.27;;
49842;SDS011;55559;48.898;9.184;2024-03-02T03:26:37;31.50;;;20.13;;
49842;SDS011;55559;48.898;9.184;2024-03-02T03:29:04;31.77;;;19.65;;
49842;SDS011;55559;48.898;9.184;2024-03-02T03:31:33;34.17;;;19.85;;
49842;SDS011;55559;48.898;9.184;2024-03-02T03:34:01;36.58;;;19.58;;
49842;SDS011;55559;48.898;9.184;2024-03-02T03:36:28;34.22;;;19.05;;
49842;SDS011;55559;48.898;9.184;2024-03-02T03:38:55;29.70;;;18.75;;
49842;SDS011;55559;48.898;9.184;2024-03-02T03:41:23;32.00;;;18.88;;
49842;SDS011;55559;48.898;9.184;2024-03-02T03:43:50;36.13;;;18.85;;
49842;SDS011;55559;48.898;9.184;2024-03-02T03:46:17;31.00;;;18.92;;
49842;SDS011;55559;48.898;9.184;2024-03-02T03:48:45;33.92;;;21.08;;
49842;SDS011;55559;48.898;9.184;2024-03-02T03:51:12;35.55;;;19.35;;
49842;SDS011;55559;48.898;9.184;2024-03-02T03:53:39;33.55;;;20.25;;
49842;SDS011;55559;48.898;9.184;2024-03-02T03:56:06;35.25;;;20.85;;
49842;SDS011;55559;48.898;9.184;2024-03-02T03:58:34;31.92;;;20.25;;
49842;SDS011;55559;48.898;9.184;2024-03-02T04:01:01;30.02;;;19.98;;
49842;SDS011;55559;48.898;9.184;2024-03-02T04:03:28;34.58;;;20.17;;
49842;SDS011;55559;48.898;9.184;2024-03-02T04:05:57;57.03;;;35.50;;
49842;SDS011;55559;48.898;9.184;2024-03-02T04:08:24;41.47;;;29.30;;
49842;SDS011;55559;48.898;9.184;2024-03-02T04:10:51;35.35;;;21.75;;
49842;SDS011;55559;48.898;9.184;2024-03-02T04:13:26;32.00;;;20.83;;
49842;SDS011;55559;48.898;9.184;2024-03-02T04:15:54;28.48;;;19.20;;
49842;SDS011;55559;48.898;9.184;2024-03-02T04:18:21;31.58;;;20.25;;
49842;SDS011;55559;48.898;9.184;2024-03-02T04:20:48;36.95;;;19.92;;
49842;SDS011;55559;48.898;9.184;2024-03-02T04:23:16;28.02;;;18.30;;
49842;SDS011;55559;48.898;9.184;2024-03-02T04:25:43;29.52;;;19.00;;
49842;SDS011;55559;48.898;9.184;2024-03-02T04:28:10;34.67;;;20.85;;
49842;SDS011;55559;48.898;9.184;2024-03-02T04:37:45;28.75;;;18.70;;
49842;SDS011;55559;48.898;9.184;2024-03-02T04:40:13;31.80;;;19.02;;
49842;SDS011;55559;48.898;9.184;2024-03-02T04:42:40;33.03;;;18.95;;
49842;SDS011;55559;48.898;9.184;2024-03-02T04:45:08;32.42;;;20.27;;
49842;SDS011;55559;48.898;9.184;2024-03-02T04:47:35;36.20;;;19.58;;
49842;SDS011;55559;48.898;9.184;2024-03-02T04:50:03;36.33;;;20.33;;
49842;SDS011;55559;48.898;9.184;2024-03-02T04:52:30;41.90;;;20.65;;
49842;SDS011;55559;48.898;9.184;2024-03-02T04:54:57;28.80;;;17.77;;
49842;SDS011;55559;48.898;9.184;2024-03-02T04:57:50;34.65;;;20.77;;
49842;SDS011;55559;48.898;9.184;2024-03-02T05:00:20;58.00;;;24.25;;
49842;SDS011;55559;48.898;9.184;2024-03-02T05:02:47;45.53;;;22.77;;
49842;SDS011;55559;48.898;9.184;2024-03-02T05:05:14;51.88;;;23.95;;
49842;SDS011;55559;48.898;9.184;2024-03-02T05:07:41;71.18;;;27.70;;
49842;SDS011;55559;48.898;9.184;2024-03-02T05:10:09;49.90;;;22.40;;
49842;SDS011;55559;48.898;9.184;2024-03-02T05:12:37;42.05;;;22.90;;
49842;SDS011;55559;48.898;9.184;2024-03-02T05:15:24;44.25;;;22.40;;
49842;SDS011;55559;48.898;9.184;2024-03-02T05:17:52;40.72;;;20.55;;
49842;SDS011;55559;48.898;9.184;2024-03-02T05:20:20;41.97;;;22.33;;
49842;SDS011;55559;48.898;9.184;2024-03-02T05:22:47;44.95;;;23.33;;
49842;SDS011;55559;48.898;9.184;2024-03-02T05:25:15;69.82;;;28.23;;
49842;SDS011;55559;48.898;9.184;2024-03-02T05:27:42;65.57;;;26.17;;
49842;SDS011;55559;48.898;9.184;2024-03-02T05:30:09;42.35;;;23.40;;
49842;SDS011;55559;48.898;9.184;2024-03-02T05:32:38;39.60;;;23.10;;
49842;SDS011;55559;48.898;9.184;2024-03-02T05:35:11;34.45;;;19.77;;
49842;SDS011;55559;48.898;9.184;2024-03-02T05:37:38;36.92;;;20.17;;
49842;SDS011;55559;48.898;9.184;2024-03-02T05:40:06;38.58;;;20.60;;
49842;SDS011;55559;48.898;9.184;2024-03-02T05:42:33;37.22;;;21.75;;
49842;SDS011;55559;48.898;9.184;2024-03-02T05:45:01;31.80;;;20.33;;
49842;SDS011;55559;48.898;9.184;2024-03-02T05:47:28;37.05;;;21.52;;
49842;SDS011;55559;48.898;9.184;2024-03-02T05:49:56;39.65;;;21.02;;
49842;SDS011;55559;48.898;9.184;2024-03-02T05:52:23;39.85;;;21.75;;
49842;SDS011;55559;48.898;9.184;2024-03-02T05:54:50;35.72;;;21.08;;
49842;SDS011;55559;48.898;9.184;2024-03-02T05:57:17;36.70;;;20.85;;
49842;SDS011;55559;48.898;9.184;2024-03-02T05:59:57;37.67;;;21.77;;
49842;SDS011;55559;48.898;9.184;2024-03-02T06:02:25;40.03;;;23.15;;
49842;SDS011;55559;48.898;9.184;2024-03-02T06:04:59;39.03;;;21.90;;
49842;SDS011;55559;48.898;9.184;2024-03-02T06:07:26;36.88;;;22.42;;
49842;SDS011;55559;48.898;9.184;2024-03-02T06:09:53;44.75;;;22.25;;
49842;SDS011;55559;48.898;9.184;2024-03-02T06:12:20;40.50;;;22.60;;
49842;SDS011;55559;48.898;9.184;2024-03-02T06:14:47;36.67;;;22.70;;
49842;SDS011;55559;48.898;9.184;2024-03-02T06:17:14;38.95;;;23.13;;
49842;SDS011;55559;48.898;9.184;2024-03-02T06:19:41;44.03;;;24.75;;
49842;SDS011;55559;48.898;9.184;2024-03-02T06:22:09;40.78;;;22.38;;
49842;SDS011;55559;48.898;9.184;2024-03-02T06:24:37;42.63;;;23.58;;
49842;SDS011;55559;48.898;9.184;2024-03-02T06:27:04;41.28;;;23.73;;
49842;SDS011;55559;48.898;9.184;2024-03-02T06:29:32;38.30;;;23.35;;
49842;SDS011;55559;48.898;9.184;2024-03-02T06:31:59;43.20;;;24.15;;
49842;SDS011;55559;48.898;9.184;2024-03-02T06:34:26;39.03;;;23.30;;
49842;SDS011;55559;48.898;9.184;2024-03-02T06:36:53;38.50;;;24.17;;
49842;SDS011;55559;48.898;9.184;2024-03-02T06:39:22;43.50;;;24.30;;
49842;SDS011;55559;48.898;9.184;2024-03-02T06:41:49;40.90;;;23.50;;
49842;SDS011;55559;48.898;9.184;2024-03-02T06:44:16;39.78;;;22.83;;
49842;SDS011;55559;48.898;9.184;2024-03-02T06:46:43;40.00;;;23.30;;
49842;SDS011;55559;48.898;9.184;2024-03-02T06:49:11;35.35;;;21.77;;
49842;SDS011;55559;48.898;9.184;2024-03-02T06:51:38;35.13;;;22.88;;
49842;SDS011;55559;48.898;9.184;2024-03-02T06:54:05;37.97;;;22.42;;
49842;SDS011;55559;48.898;9.184;2024-03-02T06:56:33;34.85;;;21.65;;
49842;SDS011;55559;48.898;9.184;2024-03-02T06:59:00;31.63;;;20.70;;
49842;SDS011;55559;48.898;9.184;2024-03-02T07:01:27;37.97;;;20.27;;
49842;SDS011;55559;48.898;9.184;2024-03-02T07:03:54;32.70;;;21.00;;
49842;SDS011;55559;48.898;9.184;2024-03-02T07:06:21;31.77;;;19.17;;
49842;SDS011;55559;48.898;9.184;2024-03-02T07:08:48;31.40;;;20.10;;
49842;SDS011;55559;48.898;9.184;2024-03-02T07:11:15;30.67;;;19.33;;
49842;SDS011;55559;48.898;9.184;2024-03-02T07:13:44;31.15;;;19.75;;
49842;SDS011;55559;48.898;9.184;2024-03-02T07:16:11;29.88;;;18.52;;
49842;SDS011;55559;48.898;9.184;2024-03-02T07:18:55;28.52;;;17.45;;
49842;SDS011;55559;48.898;9.184;2024-03-02T07:21:22;26.63;;;17.65;;
49842;SDS011;55559;48.898;9.184;2024-03-02T07:23:49;34.05;;;17.38;;
49842;SDS011;55559;48.898;9.184;2024-03-02T07:26:16;33.22;;;18.02;;
49842;SDS011;55559;48.898;9.184;2024-03-02T07:28:46;30.52;;;17.08;;
49842;SDS011;55559;48.898;9.184;2024-03-02T07:31:14;25.27;;;18.13;;
49842;SDS011;55559;48.898;9.184;2024-03-02T07:33:43;31.55;;;17.10;;
49842;SDS011;55559;48.898;9.184;2024-03-02T07:36:10;23.30;;;16.13;;
49842;SDS011;55559;48.898;9.184;2024-03-02T07:38:37;22.25;;;14.85;;
49842;SDS011;55559;48.898;9.184;2024-03-02T07:41:06;24.30;;;15.95;;
49842;SDS011;55559;48.898;9.184;2024-03-02T07:43:33;25.77;;;15.98;;
49842;SDS011;55559;48.898;9.184;2024-03-02T07:46:01;24.27;;;15.60;;
49842;SDS011;55559;48.898;9.184;2024-03-02T07:48:29;21.55;;;13.88;;
49842;SDS011;55559;48.898;9.184;2024-03-02T07:50:57;24.45;;;14.13;;
49842;SDS011;55559;48.898;9.184;2024-03-02T07:53:24;21.50;;;13.98;;
49842;SDS011;55559;48.898;9.184;2024-03-02T07:55:51;21.55;;;13.45;;
49842;SDS011;55559;48.898;9.184;2024-03-02T07:58:18;20.55;;;13.85;;
49842;SDS011;55559;48.898;9.184;2024-03-02T08:00:45;18.17;;;13.02;;
49842;SDS011;55559;48.898;9.184;2024-03-02T08:03:14;23.17;;;14.32;;
49842;SDS011;55559;48.898;9.184;2024-03-02T08:05:41;19.45;;;12.73;;
49842;SDS011;55559;48.898;9.184;2024-03-02T08:08:08;17.58;;;12.57;;
49842;SDS011;55559;48.898;9.184;2024-03-02T08:10:35;22.35;;;12.80;;
49842;SDS011;55559;48.898;9.184;2024-03-02T08:13:02;20.00;;;13.02;;
49842;SDS011;55559;48.898;9.184;2024-03-02T08:15:29;17.58;;;13.18;;
49842;SDS011;55559;48.898;9.184;2024-03-02T08:17:57;19.00;;;12.13;;
49842;SDS011;55559;48.898;9.184;2024-03-02T08:20:25;23.13;;;12.88;;
49842;SDS011;55559;48.898;9.184;2024-03-02T08:22:52;19.55;;;13.30;;
49842;SDS011;55559;48.898;9.184;2024-03-02T08:25:20;20.67;;;13.70;;
49842;SDS011;55559;48.898;9.184;2024-03-02T08:27:48;23.35;;;13.70;;
49842;SDS011;55559;48.898;9.184;2024-03-02T08:30:15;16.77;;;12.05;;
49842;SDS011;55559;48.898;9.184;2024-03-02T08:32:43;19.77;;;12.63;;
49842;SDS011;55559;48.898;9.184;2024-03-02T08:35:10;17.95;;;13.05;;
49842;SDS011;55559;48.898;9.184;2024-03-02T08:37:40;19.52;;;13.00;;
49842;SDS011;55559;48.898;9.184;2024-03-02T08:40:08;21.80;;;11.88;;
49842;SDS011;55559;48.898;9.184;2024-03-02T08:42:35;23.98;;;17.67;;
49842;SDS011;55559;48.898;9.184;2024-03-02T08:45:03;24.30;;;19.30;;
49842;SDS011;55559;48.898;9.184;2024-03-02T08:47:30;15.77;;;10.98;;
49842;SDS011;55559;48.898;9.184;2024-03-02T08:49:58;11.77;;;8.98;;
49842;SDS011;55559;48.898;9.184;2024-03-02T08:52:25;13.50;;;8.48;;
49842;SDS011;55559;48.898;9.184;2024-03-02T08:54:53;13.65;;;8.80;;
49842;SDS011;55559;48.898;9.184;2024-03-02T08:57:20;9.68;;;7.68;;
49842;SDS011;55559;48.898;9.184;2024-03-02T08:59:47;13.40;;;7.65;;
49842;SDS011;55559;48.898;9.184;2024-03-02T09:02:15;14.50;;;7.63;;
49842;SDS011;55559;48.898;9.184;2024-03-02T09:04:42;11.68;;;7.95;;
49842;SDS011;55559;48.898;9.184;2024-03-02T09:07:09;9.18;;;6.68;;
49842;SDS011;55559;48.898;9.184;2024-03-02T09:09:36;11.60;;;5.88;;
49842;SDS011;55559;48.898;9.184;2024-03-02T09:12:05;6.63;;;4.75;;
49842;SDS011;55559;48.898;9.184;2024-03-02T09:14:40;5.07;;;3.72;;
49842;SDS011;55559;48.898;9.184;2024-03-02T09:17:07;4.78;;;3.30;;
49842;SDS011;55559;48.898;9.184;2024-03-02T09:19:36;6.10;;;4.18;;
49842;SDS011;55559;48.898;9.184;2024-03-02T09:22:03;7.30;;;4.30;;
49842;SDS011;55559;48.898;9.184;2024-03-02T09:24:31;5.70;;;4.03;;
49842;SDS011;55559;48.898;9.184;2024-03-02T09:26:58;4.90;;;4.28;;
49842;SDS011;55559;48.898;9.184;2024-03-02T09:29:27;6.95;;;4.57;;
49842;SDS011;55559;48.898;9.184;2024-03-02T09:31:54;4.85;;;4.15;;
49842;SDS011;55559;48.898;9.184;2024-03-02T09:34:22;5.10;;;3.63;;
49842;SDS011;55559;48.898;9.184;2024-03-02T09:36:50;4.43;;;3.80;;
49842;SDS011;55559;48.898;9.184;2024-03-02T09:39:16;5.07;;;2.95;;
49842;SDS011;55559;48.898;9.184;2024-03-02T09:41:44;3.90;;;3.03;;
49842;SDS011;55559;48.898;9.184;2024-03-02T09:44:11;4.35;;;3.45;;
49842;SDS011;55559;48.898;9.184;2024-03-02T09:46:39;4.03;;;2.70;;
49842;SDS011;55559;48.898;9.184;2024-03-02T09:49:09;5.82;;;3.22;;
49842;SDS011;55559;48.898;9.184;2024-03-02T09:51:36;3.47;;;2.60;;
49842;SDS011;55559;48.898;9.184;2024-03-02T09:54:04;4.53;;;3.08;;
49842;SDS011;55559;48.898;9.184;2024-03-02T09:56:31;5.60;;;3.17;;
49842;SDS011;55559;48.898;9.184;2024-03-02T09:58:59;4.70;;;2.75;;
49842;SDS011;55559;48.898;9.184;2024-03-02T10:01:26;4.50;;;3.08;;
49842;SDS011;55559;48.898;9.184;2024-03-02T10:03:54;4.97;;;3.17;;
49842;SDS011;55559;48.898;9.184;2024-03-02T10:06:22;4.63;;;2.75;;
49842;SDS011;55559;48.898;9.184;2024-03-02T10:08:49;3.75;;;2.55;;
49842;SDS011;55559;48.898;9.184;2024-03-02T10:11:25;5.57;;;2.10;;
49842;SDS011;55559;48.898;9.184;2024-03-02T10:13:59;3.72;;;2.33;;
49842;SDS011;55559;48.898;9.184;2024-03-02T10:16:30;3.08;;;2.10;;
49842;SDS011;55559;48.898;9.184;2024-03-02T10:18:59;5.97;;;2.60;;
49842;SDS011;55559;48.898;9.184;2024-03-02T10:21:41;2.53;;;1.90;;
49842;SDS011;55559;48.898;9.184;2024-03-02T10:24:09;4.47;;;1.98;;
49842;SDS011;55559;48.898;9.184;2024-03-02T10:26:36;4.40;;;1.85;;
49842;SDS011;55559;48.898;9.184;2024-03-02T10:29:03;7.50;;;2.45;;
49842;SDS011;55559;48.898;9.184;2024-03-02T10:31:30;3.30;;;1.98;;
49842;SDS011;55559;48.898;9.184;2024-03-02T10:33:58;4.05;;;2.13;;
49842;SDS011;55559;48.898;9.184;2024-03-02T10:36:26;2.15;;;1.17;;
49842;SDS011;55559;48.898;9.184;2024-03-02T10:38:52;2.30;;;1.20;;
49842;SDS011;55559;48.898;9.184;2024-03-02T10:41:21;1.90;;;1.20;;
49842;SDS011;55559;48.898;9.184;2024-03-02T10:43:50;2.83;;;1.08;;
49842;SDS011;55559;48.898;9.184;2024-03-02T10:46:18;2.38;;;1.10;;
49842;SDS011;55559;48.898;9.184;2024-03-02T10:48:46;1.52;;;0.90;;
49842;SDS011;55559;48.898;9.184;2024-03-02T10:51:16;1.70;;;1.00;;
49842;SDS011;55559;48.898;9.184;2024-03-02T10:53:43;1.80;;;1.10;;
49842;SDS011;55559;48.898;9.184;2024-03-02T10:56:10;2.70;;;1.38;;
49842;SDS011;55559;48.898;9.184;2024-03-02T10:58:39;2.45;;;1.13;;
49842;SDS011;55559;48.898;9.184;2024-03-02T11:01:06;1.65;;;0.90;;
49842;SDS011;55559;48.898;9.184;2024-03-02T11:03:35;1.73;;;1.08;;
49842;SDS011;55559;48.898;9.184;2024-03-02T11:06:03;1.85;;;1.00;;
49842;SDS011;55559;48.898;9.184;2024-03-02T11:08:34;3.63;;;1.08;;
49842;SDS011;55559;48.898;9.184;2024-03-02T11:11:06;4.63;;;1.10;;
49842;SDS011;55559;48.898;9.184;2024-03-02T11:13:34;3.33;;;0.75;;
49842;SDS011;55559;48.898;9.184;2024-03-02T11:16:03;2.58;;;0.98;;
49842;SDS011;55559;48.898;9.184;2024-03-02T11:18:32;3.25;;;0.98;;
49842;SDS011;55559;48.898;9.184;2024-03-02T11:20:59;2.75;;;0.70;;
49842;SDS011;55559;48.898;9.184;2024-03-02T11:23:31;1.73;;;0.70;;
49842;SDS011;55559;48.898;9.184;2024-03-02T11:28:41;1.50;;;0.70;;
49842;SDS011;55559;48.898;9.184;2024-03-02T11:31:08;1.42;;;0.60;;
49842;SDS011;55559;48.898;9.184;2024-03-02T11:33:35;3.72;;;0.50;;
49842;SDS011;55559;48.898;9.184;2024-03-02T11:36:02;2.58;;;0.80;;
49842;SDS011;55559;48.898;9.184;2024-03-02T11:38:30;1.80;;;0.68;;
49842;SDS011;55559;48.898;9.184;2024-03-02T11:40:57;2.75;;;0.60;;
49842;SDS011;55559;48.898;9.184;2024-03-02T11:43:27;1.88;;;0.50;;
49842;SDS011;55559;48.898;9.184;2024-03-02T11:45:59;1.40;;;0.50;;
49842;SDS011;55559;48.898;9.184;2024-03-02T11:48:26;0.85;;;0.45;;
49842;SDS011;55559;48.898;9.184;2024-03-02T11:50:53;5.55;;;0.50;;
49842;SDS011;55559;48.898;9.184;2024-03-02T11:53:27;0.98;;;0.40;;
49842;SDS011;55559;48.898;9.184;2024-03-02T11:55:54;1.63;;;0.50;;
49842;SDS011;55559;48.898;9.184;2024-03-02T11:58:22;2.47;;;0.50;;
49842;SDS011;55559;48.898;9.184;2024-03-02T12:00:50;1.90;;;0.60;;
49842;SDS011;55559;48.898;9.184;2024-03-02T12:03:20;2.13;;;0.45;;
49842;SDS011;55559;48.898;9.184;2024-03-02T12:05:48;0.55;;;0.30;;
49842;SDS011;55559;48.898;9.184;2024-03-02T12:08:15;0.80;;;0.40;;
49842;SDS011;55559;48.898;9.184;2024-03-02T12:10:43;2.78;;;0.50;;
49842;SDS011;55559;48.898;9.184;2024-03-02T12:13:22;2.50;;;0.43;;
49842;SDS011;55559;48.898;9.184;2024-03-02T12:15:50;0.73;;;0.35;;
49842;SDS011;55559;48.898;9.184;2024-03-02T12:18:21;0.98;;;0.40;;
49842;SDS011;55559;48.898;9.184;2024-03-02T12:20:48;1.02;;;0.40;;
49842;SDS011;55559;48.898;9.184;2024-03-02T12:23:15;1.33;;;0.30;;
49842;SDS011;55559;48.898;9.184;2024-03-02T12:25:42;0.98;;;0.40;;
49842;SDS011;55559;48.898;9.184;2024-03-02T12:28:09;1.58;;;0.43;;
49842;SDS011;55559;48.898;9.184;2024-03-02T12:30:37;2.33;;;0.40;;
49842;SDS011;55559;48.898;9.184;2024-03-02T12:33:04;0.70;;;0.30;;
49842;SDS011;55559;48.898;9.184;2024-03-02T12:35:32;3.63;;;0.40;;
49842;SDS011;55559;48.898;9.184;2024-03-02T12:37:59;2.70;;;0.30;;
49842;SDS011;55559;48.898;9.184;2024-03-02T12:40:26;0.40;;;0.20;;
49842;SDS011;55559;48.898;9.184;2024-03-02T12:42:53;0.77;;;0.30;;
49842;SDS011;55559;48.898;9.184;2024-03-02T12:45:21;3.28;;;0.30;;
49842;SDS011;55559;48.898;9.184;2024-03-02T12:47:50;2.45;;;0.30;;
49842;SDS011;55559;48.898;9.184;2024-03-02T12:50:17;0.30;;;0.20;;
49842;SDS011;55559;48.898;9.184;2024-03-02T12:52:51;0.88;;;0.20;;
49842;SDS011;55559;48.898;9.184;2024-03-02T12:55:19;0.75;;;0.20;;
49842;SDS011;55559;48.898;9.184;2024-03-02T12:57:46;0.70;;;0.30;;
49842;SDS011;55559;48.898;9.184;2024-03-02T13:00:13;1.77;;;0.30;;
49842;SDS011;55559;48.898;9.184;2024-03-02T13:02:40;2.08;;;0.20;;
49842;SDS011;55559;48.898;9.184;2024-03-02T13:05:08;0.98;;;0.30;;
49842;SDS011;55559;48.898;9.184;2024-03-02T13:07:36;0.65;;;0.20;;
49842;SDS011;55559;48.898;9.184;2024-03-02T13:10:05;0.68;;;0.22;;
49842;SDS011;55559;48.898;9.184;2024-03-02T13:12:33;1.45;;;0.20;;
49842;SDS011;55559;48.898;9.184;2024-03-02T13:15:00;1.10;;;0.30;;
49842;SDS011;55559;48.898;9.184;2024-03-02T13:17:34;0.98;;;0.25;;
49842;SDS011;55559;48.898;9.184;2024-03-02T13:20:00;1.40;;;0.28;;
49842;SDS011;55559;48.898;9.184;2024-03-02T13:22:29;0.43;;;0.20;;
49842;SDS011;55559;48.898;9.184;2024-03-02T13:24:56;0.77;;;0.20;;
49842;SDS011;55559;48.898;9.184;2024-03-02T13:27:26;0.40;;;0.20;;
49842;SDS011;55559;48.898;9.184;2024-03-02T13:29:54;0.63;;;0.20;;
49842;SDS011;55559;48.898;9.184;2024-03-02T13:32:21;1.02;;;0.28;;
49842;SDS011;55559;48.898;9.184;2024-03-02T13:34:49;0.30;;;0.10;;
49842;SDS011;55559;48.898;9.184;2024-03-02T13:37:16;0.35;;;0.20;;
49842;SDS011;55559;48.898;9.184;2024-03-02T13:39:43;1.17;;;0.20;;
49842;SDS011;55559;48.898;9.184;2024-03-02T13:42:10;0.50;;;0.20;;
49842;SDS011;55559;48.898;9.184;2024-03-02T13:44:41;1.17;;;0.20;;
49842;SDS011;55559;48.898;9.184;2024-03-02T13:47:11;0.47;;;0.15;;
49842;SDS011;55559;48.898;9.184;2024-03-02T13:49:38;0.38;;;0.10;;
49842;SDS011;55559;48.898;9.184;2024-03-02T13:52:09;0.80;;;0.20;;
49842;SDS011;55559;48.898;9.184;2024-03-02T13:54:38;0.40;;;0.20;;
49842;SDS011;55559;48.898;9.184;2024-03-02T13:57:06;0.50;;;0.10;;
49842;SDS011;55559;48.898;9.184;2024-03-02T13:59:33;0.60;;;0.13;;
49842;SDS011;55559;48.898;9.184;2024-03-02T14:02:04;0.20;;;0.10;;
49842;SDS011;55559;48.898;9.184;2024-03-02T14:04:31;0.20;;;0.10;;
49842;SDS011;55559;48.898;9.184;2024-03-02T14:06:58;0.68;;;0.20;;
49842;SDS011;55559;48.898;9.184;2024-03-02T14:09:26;0.60;;;0.20;;
49842;SDS011;55559;48.898;9.184;2024-03-02T14:11:53;0.40;;;0.10;;
49842;SDS011;55559;48.898;9.184;2024-03-02T14:14:20;0.40;;;0.10;;
49842;SDS011;55559;48.898;9.184;2024-03-02T14:16:48;0.98;;;0.20;;
49842;SDS011;55559;48.898;9.184;2024-03-02T14:19:17;0.40;;;0.15;;
49842;SDS011;55559;48.898;9.184;2024-03-02T14:21:44;0.50;;;0.20;;
49842;SDS011;55559;48.898;9.184;2024-03-02T14:24:10;3.63;;;0.10;;
49842;SDS011;55559;48.898;9.184;2024-03-02T14:26:38;3.10;;;0.20;;
49842;SDS011;55559;48.898;9.184;2024-03-02T14:29:06;0.63;;;0.35;;
49842;SDS011;55559;48.898;9.184;2024-03-02T14:31:32;2.20;;;0.20;;
49842;SDS011;55559;48.898;9.184;2024-03-02T14:33:59;0.43;;;0.20;;
49842;SDS011;55559;48.898;9.184;2024-03-02T14:36:28;0.90;;;0.20;;
49842;SDS011;55559;48.898;9.184;2024-03-02T14:38:55;5.63;;;0.20;;
49842;SDS011;55559;48.898;9.184;2024-03-02T14:41:22;0.68;;;0.30;;
49842;SDS011;55559;48.898;9.184;2024-03-02T14:43:50;6.50;;;1.58;;
49842;SDS011;55559;48.898;9.184;2024-03-02T14:46:17;1.92;;;0.50;;